Flight Track Log - Related Links

Times and Time Zones

All times are in EST time to prevent confusion due to time zone crossing. See the OPT332 flight status page for this flight to view local times or setup timezone preferences in your user account.

Time Position Orientation Groundspeed Altitude Reporting Facility
EST Latitude Longitude Course Direction KTS MPH feet Rate Location/Type
Mon 05:40:20 PM 32.3306 -115.3706 323° Northwest 412 474 43,000  Level Los Center
Mon 05:41:23 PM 32.4411 -115.4678 323° Northwest 414 476 43,000  Level Los Center
Mon 05:42:25 PM 32.5322 -115.5469 324° Northwest 409 471 43,000  Level Los Center
Mon 05:43:27 PM 32.6222 -115.6272 323° Northwest 407 468 43,000 -48 Level Los Center
Mon 05:44:29 PM 32.7011 -115.7456 308° West 383 441 42,900 -1,880 Descending Los Center
Mon 05:50:41 PM 33.0608 -116.4318 308° West 404 465 29,400 -2,226 Descending FlightAware
Mon 05:51:16 PM 33.0944 -116.4966 302° West 414 476 27,800 -2,486 Descending FlightAware
Mon 05:51:51 PM 33.1307 -116.5666 302° West 417 480 26,500 -2,123 Descending FlightAware
Mon 05:52:21 PM 33.1695 -116.6172 312° West 411 473 25,500 -2,200 Descending FlightAware
Mon 05:52:51 PM 33.2080 -116.6578 319° Northwest 408 470 24,300 -2,174 Descending FlightAware
Mon 05:53:30 PM 33.2648 -116.7192 318° Northwest 399 459 23,000 -1,971 Descending FlightAware
Mon 05:54:01 PM 33.3084 -116.7661 318° Northwest 389 448 22,000 -1,935 Descending FlightAware
Mon 05:54:32 PM 33.3490 -116.8097 318° Northwest 380 437 21,000 -1,839 Descending FlightAware
Mon 05:55:03 PM 33.3885 -116.8524 318° Northwest 372 428 20,100 -1,869 Descending FlightAware
Mon 05:55:33 PM 33.4269 -116.8939 318° Northwest 370 426 19,100 -2,118 Descending FlightAware
Mon 05:56:11 PM 33.4731 -116.9437 318° Northwest 367 422 17,700 -2,100 Descending FlightAware
Mon 05:56:53 PM 33.5292 -117.0046 318° Northwest 369 425 16,300 -1,200 Descending FlightAware
Mon 05:57:31 PM 33.5790 -117.0585 318° Northwest 360 414 16,100 -176 Descending FlightAware
Mon 05:58:01 PM 33.6140 -117.0965 318° Northwest 355 409 16,100  Level FlightAware
Mon 05:59:01 PM 33.6875 -117.1765 318° Northwest 358 412 16,100  Level FlightAware
Mon 05:59:39 PM 33.7349 -117.2282 318° Northwest 371 427 16,100  Level FlightAware
Mon 06:00:13 PM 33.7762 -117.2734 318° Northwest 356 410 16,100  Level FlightAware
Mon 06:00:43 PM 33.8097 -117.3100 318° Northwest 331 381 16,100 -353 Level FlightAware
Mon 06:01:21 PM 33.8528 -117.3571 318° Northwest 324 373 15,700 -1,500 Descending FlightAware
Mon 06:01:51 PM 33.8854 -117.3930 318° Northwest 326 375 14,400 -2,583 Descending FlightAware
Mon 06:02:33 PM 33.9312 -117.4432 318° Northwest 319 367 12,600 -1,917 Descending FlightAware
Mon 06:03:03 PM 33.9665 -117.4830 317° Northwest 319 367 12,100 -769 Descending FlightAware
Mon 06:03:12 PM 33.9738 -117.4949 306° West 318 366 12,100 -900 Level FlightAware
Mon 06:04:03 PM 34.0035 -117.5767 294° West 325 374 11,200 -1,324 Descending FlightAware
Mon 06:04:20 PM 34.0113 -117.6057 288° West 328 377 10,600 -2,000 Descending FlightAware
Mon 06:04:33 PM 34.0116 -117.6327 271° West 326 375 10,200 -698 Descending FlightAware
Mon 06:05:03 PM 34.0063 -117.6820 263° West 330 380 10,100 -750 Descending FlightAware
Mon 06:05:37 PM 34.0004 -117.7481 264° West 334 384 9,400 -1,235 Descending FlightAware
Mon 06:06:11 PM 33.9944 -117.8108 263° West 315 362 8,700 -1,368 Descending FlightAware
Mon 06:06:34 PM 33.9906 -117.8489 263° West 296 341 8,100 -1,655 Descending FlightAware
Mon 06:07:09 PM 33.9855 -117.9020 263° West 280 322 7,100 -1,393 Descending FlightAware
Mon 06:07:30 PM 33.9824 -117.9329 263° West 277 319 6,800 -1,535 Descending FlightAware
Mon 06:07:52 PM 33.9787 -117.9708 263° West 270 311 6,000 -2,000 Descending FlightAware
Mon 06:08:18 PM 33.9754 -118.0050 263° West 272 313 5,200 -730 Descending FlightAware
Mon 06:09:06 PM 33.9682 -118.0769 263° West 271 312 5,100 -805 Descending FlightAware
Mon 06:09:40 PM 33.9667 -118.1333 263° West 270 311 4,100 -1,310 Descending Southern TRACON
Mon 06:10:33 PM 33.9572 -118.1964 260° West 265 305 3,200 -991 Descending Los Center
Mon 06:11:35 PM 33.9489 -118.2714 262° West 246 283 2,200 -878 Descending Los Center
Mon 06:12:36 PM 33.9453 -118.3147 264° West 199 229 1,400 -878 Descending Los Center
Mon 06:13:38 PM 33.9400 -118.3683 263° West 137 158 400 -581 Descending Los Center
Mon 06:14:40 PM 33.9369 -118.4008 264° West 127 146 200 -194 Descending Los Center
Mon 06:16:00 PM 33.9333 -118.4000 270° West  Level FlightAware
Mon 06:23:00 PM 33.9425 -118.4081 270° West  Level Estimated

Login

Don't have an account? Register now (free) for customized features, flight alerts, and more!